createdAt,value
2018-04-28T00:00:10.266Z,68.30
2018-04-28T00:01:15.542Z,68.06
2018-04-28T00:02:20.055Z,68.86
2018-04-28T00:03:24.229Z,68.97
2018-04-28T00:04:28.388Z,69.69
2018-04-28T00:05:32.652Z,70.17
2018-04-28T00:06:36.791Z,70.81
2018-04-28T00:07:41.045Z,71.20
2018-04-28T00:08:45.618Z,70.84
2018-04-28T00:09:49.855Z,70.19
2018-04-28T00:10:54.185Z,69.84
2018-04-28T00:11:58.358Z,69.21
2018-04-28T00:13:02.596Z,68.09
2018-04-28T00:14:06.804Z,67.76
2018-04-28T00:15:12.889Z,67.83
2018-04-28T00:16:17.340Z,67.11
2018-04-28T00:17:21.628Z,66.99
2018-04-28T00:18:26.052Z,67.12
2018-04-28T00:19:30.408Z,67.35
2018-04-28T00:20:34.631Z,67.51
2018-04-28T00:21:39.227Z,67.63
2018-04-28T00:22:43.408Z,67.76
2018-04-28T00:23:47.823Z,67.99
2018-04-28T00:24:52.056Z,67.70
2018-04-28T00:25:56.697Z,67.92
2018-04-28T00:27:05.040Z,67.98
2018-04-28T00:28:09.630Z,68.07
2018-04-28T00:29:14.347Z,67.71
2018-04-28T00:30:19.077Z,67.75
2018-04-28T00:31:23.585Z,67.61
2018-04-28T00:32:27.791Z,67.77
2018-04-28T00:33:31.957Z,67.98
2018-04-28T00:34:36.352Z,67.99
2018-04-28T00:35:40.564Z,67.62
2018-04-28T00:36:44.923Z,67.28
2018-04-28T00:37:49.680Z,67.23
2018-04-28T00:38:53.941Z,67.02
2018-04-28T00:39:59.019Z,67.14
2018-04-28T00:41:04.263Z,67.36
2018-04-28T00:42:08.456Z,67.11
2018-04-28T00:43:13.265Z,66.74
2018-04-28T00:44:17.953Z,66.99
2018-04-28T00:45:22.996Z,66.53
2018-04-28T00:46:27.238Z,66.62
2018-04-28T00:47:31.426Z,66.80
2018-04-28T00:48:35.823Z,67.12
2018-04-28T00:49:40.071Z,67.38
2018-04-28T00:50:44.833Z,67.48
2018-04-28T00:51:49.191Z,67.58
2018-04-28T00:52:53.509Z,67.75
2018-04-28T00:53:58.384Z,67.65
2018-04-28T00:55:02.589Z,67.65
2018-04-28T00:56:07.291Z,67.54
2018-04-28T00:57:14.621Z,67.61
2018-04-28T00:58:18.881Z,67.51
2018-04-28T00:59:23.149Z,67.70
2018-04-28T01:00:28.082Z,67.47
2018-04-28T01:01:33.913Z,67.58
2018-04-28T01:02:38.213Z,67.76
2018-04-28T01:03:42.513Z,67.23
2018-04-28T01:04:46.864Z,66.84
2018-04-28T01:05:51.228Z,67.15
2018-04-28T01:06:55.363Z,66.88
2018-04-28T01:07:59.921Z,67.19
2018-04-28T01:09:06.265Z,67.46
2018-04-28T01:10:10.871Z,67.81
2018-04-28T01:11:15.229Z,68.00
2018-04-28T01:12:19.386Z,68.24
2018-04-28T01:13:23.588Z,68.12
2018-04-28T01:14:30.099Z,68.08
2018-04-28T01:15:35.291Z,68.03
2018-04-28T01:16:39.949Z,68.04
2018-04-28T01:17:44.209Z,68.16
2018-04-28T01:18:48.991Z,68.40
2018-04-28T01:19:53.581Z,68.38
2018-04-28T01:21:01.745Z,67.90
2018-04-28T01:22:06.209Z,67.88
2018-04-28T01:23:10.481Z,67.69
2018-04-28T01:24:15.598Z,67.75
2018-04-28T01:25:19.864Z,67.87
2018-04-28T01:26:24.105Z,67.68
2018-04-28T01:27:28.459Z,68.04
2018-04-28T01:28:36.919Z,67.99
2018-04-28T01:29:49.826Z,67.50
2018-04-28T01:30:55.387Z,67.05
2018-04-28T01:32:00.177Z,67.48
2018-04-28T01:33:05.606Z,68.06
2018-04-28T01:34:10.224Z,68.63
2018-04-28T01:35:14.887Z,68.97
2018-04-28T01:36:19.125Z,69.21
2018-04-28T01:37:23.366Z,69.28
2018-04-28T01:38:27.791Z,69.77
2018-04-28T01:39:32.241Z,69.89
2018-04-28T01:40:36.447Z,70.14
2018-04-28T01:41:41.046Z,70.54
2018-04-28T01:42:45.456Z,70.44
2018-04-28T01:43:49.987Z,70.41
2018-04-28T01:44:54.341Z,70.10
2018-04-28T01:45:59.187Z,69.82
2018-04-28T01:47:03.764Z,69.98
2018-04-28T01:48:08.271Z,69.78
2018-04-28T01:49:12.626Z,69.79
2018-04-28T01:50:17.153Z,70.34
2018-04-28T01:51:21.314Z,70.56
2018-04-28T01:52:25.593Z,70.44
2018-04-28T01:53:30.103Z,70.53
2018-04-28T01:54:34.725Z,70.96
2018-04-28T01:55:39.037Z,71.02
2018-04-28T01:56:43.199Z,70.99
2018-04-28T01:57:47.873Z,71.00
2018-04-28T01:58:52.321Z,70.94
2018-04-28T01:59:57.051Z,70.97
2018-04-28T02:01:01.630Z,70.94
2018-04-28T02:02:07.044Z,71.14
2018-04-28T02:03:11.382Z,70.98
2018-04-28T02:04:15.997Z,71.13
2018-04-28T02:05:22.042Z,71.26
2018-04-28T02:06:27.048Z,71.53
2018-04-28T02:07:31.538Z,71.67
2018-04-28T02:08:36.060Z,71.95
2018-04-28T02:09:40.642Z,72.35
2018-04-28T02:10:45.357Z,72.49
2018-04-28T02:11:49.630Z,72.73
2018-04-28T02:12:58.391Z,72.80
2018-04-28T02:14:02.848Z,72.91
2018-04-28T02:15:07.652Z,72.93
2018-04-28T02:16:12.318Z,73.03
2018-04-28T02:17:17.369Z,73.01
2018-04-28T02:18:22.952Z,73.06
2018-04-28T02:19:28.161Z,72.80
2018-04-28T02:20:32.564Z,72.64
2018-04-28T02:21:36.883Z,72.81
2018-04-28T02:22:41.107Z,72.95
2018-04-28T02:23:45.696Z,73.22
2018-04-28T02:24:50.849Z,73.45
2018-04-28T02:25:55.141Z,73.53
2018-04-28T02:26:59.453Z,73.54
2018-04-28T02:28:05.314Z,73.42
2018-04-28T02:29:09.640Z,73.64
2018-04-28T02:30:16.180Z,73.75
2018-04-28T02:31:22.518Z,73.84
2018-04-28T02:32:26.740Z,74.11
2018-04-28T02:33:30.940Z,74.35
2018-04-28T02:34:35.231Z,74.56
2018-04-28T02:35:39.457Z,74.93
2018-04-28T02:36:44.321Z,75.25
2018-04-28T02:37:49.048Z,75.61
2018-04-28T02:38:53.222Z,75.76
2018-04-28T02:39:58.312Z,75.87
2018-04-28T02:41:03.556Z,76.46
2018-04-28T02:42:07.917Z,76.35
2018-04-28T02:43:12.393Z,76.37
2018-04-28T02:44:20.998Z,76.49
2018-04-28T02:45:25.742Z,76.69
2018-04-28T02:46:30.435Z,76.78
2018-04-28T02:47:35.518Z,76.96
2018-04-28T02:48:45.568Z,76.97
2018-04-28T02:49:50.187Z,76.90
2018-04-28T02:50:54.774Z,76.67
2018-04-28T02:51:59.026Z,76.34
2018-04-28T02:53:08.133Z,76.29
2018-04-28T02:54:14.398Z,76.16
2018-04-28T02:55:18.866Z,75.97
2018-04-28T02:56:23.133Z,75.81
2018-04-28T02:57:27.792Z,75.74
2018-04-28T02:58:32.068Z,75.91
2018-04-28T02:59:36.690Z,76.01
2018-04-28T03:00:41.824Z,76.00
2018-04-28T03:01:46.245Z,76.30
2018-04-28T03:02:50.602Z,76.33
2018-04-28T03:03:55.046Z,76.34
2018-04-28T03:04:59.205Z,76.32
2018-04-28T03:06:03.593Z,76.40
2018-04-28T03:07:09.382Z,76.42
2018-04-28T03:08:14.752Z,76.42
2018-04-28T03:09:19.009Z,76.52
2018-04-28T03:10:23.884Z,76.68
2018-04-28T03:11:32.087Z,76.78
2018-04-28T03:12:36.518Z,76.68
2018-04-28T03:13:40.760Z,76.83
2018-04-28T03:14:45.045Z,76.96
2018-04-28T03:17:08.554Z,77.12
2018-04-28T03:18:12.823Z,77.17
2018-04-28T03:19:17.706Z,77.32
2018-04-28T03:20:21.903Z,77.45
2018-04-28T03:21:26.098Z,77.67
2018-04-28T03:22:30.508Z,77.87
2018-04-28T03:23:34.784Z,78.02
2018-04-28T03:24:39.001Z,78.22
2018-04-28T03:25:43.800Z,78.36
2018-04-28T03:26:48.257Z,78.51
2018-04-28T03:27:52.457Z,78.66
2018-04-28T03:28:57.101Z,78.87
2018-04-28T03:30:01.259Z,78.78
2018-04-28T03:31:06.139Z,78.80
2018-04-28T03:32:10.357Z,78.75
2018-04-28T03:33:15.093Z,78.86
2018-04-28T03:34:19.478Z,78.78
2018-04-28T03:35:23.817Z,78.54
2018-04-28T03:36:28.086Z,78.40
2018-04-28T03:37:32.600Z,78.42
2018-04-28T03:38:39.062Z,78.47
2018-04-28T03:39:43.958Z,78.51
2018-04-28T03:40:48.657Z,78.50
2018-04-28T03:41:52.929Z,78.45
2018-04-28T03:42:57.225Z,78.32
2018-04-28T03:44:02.014Z,78.24
2018-04-28T03:45:07.307Z,78.18
2018-04-28T03:46:11.892Z,78.15
2018-04-28T03:47:16.771Z,77.82
2018-04-28T03:48:21.487Z,76.98
2018-04-28T03:49:26.738Z,76.67
2018-04-28T03:50:31.945Z,76.34
2018-04-28T03:51:36.724Z,76.02
2018-04-28T03:52:44.521Z,75.75
2018-04-28T03:54:52.061Z,75.18
2018-04-28T03:55:56.572Z,74.84
2018-04-28T03:57:01.171Z,74.55
2018-04-28T03:58:16.151Z,74.27
2018-04-28T04:01:38.161Z,74.10
2018-04-28T04:03:19.393Z,73.68
2018-04-28T04:04:24.123Z,73.56
2018-04-28T04:05:28.577Z,73.68
2018-04-28T04:06:33.157Z,73.71
2018-04-28T04:07:37.433Z,74.00
2018-04-28T04:08:41.663Z,74.43
2018-04-28T04:09:46.058Z,74.32
2018-04-28T04:10:50.675Z,74.19
2018-04-28T04:11:54.945Z,74.10
2018-04-28T04:12:59.468Z,73.67
2018-04-28T04:14:04.728Z,73.63
2018-04-28T04:15:09.476Z,73.55
2018-04-28T04:16:15.001Z,73.59
2018-04-28T04:17:19.199Z,73.57
2018-04-28T04:18:27.909Z,73.40
2018-04-28T04:19:36.574Z,73.29
2018-04-28T04:20:41.105Z,73.34
2018-04-28T04:21:45.569Z,73.17
2018-04-28T04:22:49.971Z,72.98
2018-04-28T04:23:59.869Z,72.85
2018-04-28T04:25:04.095Z,72.92
2018-04-28T04:26:08.361Z,72.93
2018-04-28T04:27:12.949Z,73.12
2018-04-28T04:28:17.263Z,73.04
2018-04-28T04:29:21.497Z,72.34
2018-04-28T04:30:26.473Z,72.17
2018-04-28T04:31:30.985Z,72.14
2018-04-28T04:32:35.271Z,72.22
2018-04-28T04:33:39.597Z,72.02
2018-04-28T04:34:44.136Z,71.88
2018-04-28T04:35:48.839Z,71.39
2018-04-28T04:36:53.112Z,71.80
2018-04-28T04:37:57.332Z,72.01
2018-04-28T04:39:01.849Z,72.07
2018-04-28T04:40:06.111Z,71.97
2018-04-28T04:41:10.499Z,71.73
2018-04-28T04:42:15.645Z,71.90
2018-04-28T04:43:19.816Z,71.88
2018-04-28T04:44:24.051Z,71.92
2018-04-28T04:45:28.595Z,71.99
2018-04-28T04:46:32.836Z,71.74
2018-04-28T04:47:37.137Z,71.89
2018-04-28T04:48:41.353Z,72.11
2018-04-28T04:49:45.633Z,72.02
2018-04-28T04:50:54.589Z,72.05
2018-04-28T04:51:59.834Z,72.14
2018-04-28T04:53:11.041Z,72.20
2018-04-28T04:54:16.176Z,72.16
2018-04-28T04:55:21.315Z,72.22
2018-04-28T04:56:29.069Z,71.79
2018-04-28T04:57:33.833Z,71.74
2018-04-28T04:58:38.190Z,71.75
2018-04-28T04:59:42.443Z,71.97
2018-04-28T05:00:48.456Z,71.57
2018-04-28T05:01:58.453Z,71.63
2018-04-28T05:03:03.145Z,71.80
2018-04-28T05:04:08.529Z,71.67
2018-04-28T05:05:13.152Z,71.93
2018-04-28T05:06:17.742Z,71.94
2018-04-28T05:07:21.995Z,71.91
2018-04-28T05:08:26.871Z,71.73
2018-04-28T05:09:31.273Z,71.90
2018-04-28T05:10:40.421Z,72.11
2018-04-28T05:11:44.961Z,71.86
2018-04-28T05:12:52.773Z,72.12
2018-04-28T05:13:57.419Z,72.19
2018-04-28T05:15:03.195Z,71.74
2018-04-28T05:16:08.119Z,71.79
2018-04-28T05:17:12.995Z,71.79
2018-04-28T05:18:25.927Z,71.63
2018-04-28T05:19:30.195Z,71.25
2018-04-28T05:20:34.553Z,70.81
2018-04-28T05:21:39.007Z,70.72
2018-04-28T05:22:43.951Z,70.78
2018-04-28T05:23:48.935Z,70.91
2018-04-28T05:24:53.353Z,71.31
2018-04-28T05:25:58.287Z,71.16
2018-04-28T05:27:02.767Z,71.25
2018-04-28T05:28:07.060Z,71.23
2018-04-28T05:29:13.149Z,71.31
2018-04-28T05:30:21.949Z,71.18
2018-04-28T05:31:26.453Z,71.47
2018-04-28T05:32:30.935Z,71.77
2018-04-28T05:33:36.491Z,71.87
2018-04-28T05:34:41.757Z,71.82
2018-04-28T05:35:48.021Z,71.63
2018-04-28T05:36:52.328Z,71.94
2018-04-28T05:37:57.110Z,72.16
2018-04-28T05:39:01.906Z,72.56
2018-04-28T05:40:07.259Z,72.90
2018-04-28T05:41:17.473Z,73.24
2018-04-28T05:42:29.585Z,73.64
2018-04-28T05:43:33.991Z,73.87
2018-04-28T05:44:38.841Z,73.77
2018-04-28T05:45:43.377Z,74.29
2018-04-28T05:46:48.287Z,73.99
2018-04-28T05:47:56.563Z,73.51
2018-04-28T05:49:01.142Z,73.49
2018-04-28T05:50:06.172Z,73.52
2018-04-28T05:51:10.988Z,73.44
2018-04-28T05:52:16.511Z,73.64
2018-04-28T05:53:22.087Z,73.54
2018-04-28T05:54:28.677Z,73.26
2018-04-28T05:55:33.035Z,73.19
2018-04-28T05:56:40.507Z,73.14
2018-04-28T05:57:46.177Z,73.06
2018-04-28T05:58:50.759Z,72.96
2018-04-28T05:59:55.591Z,73.28
2018-04-28T06:01:00.448Z,72.74
2018-04-28T06:02:05.180Z,72.34
2018-04-28T06:03:14.565Z,71.97
2018-04-28T06:04:27.394Z,71.79
2018-04-28T06:05:31.666Z,71.61
2018-04-28T06:06:36.639Z,71.68
2018-04-28T06:07:41.181Z,71.97
2018-04-28T06:08:46.302Z,71.58
2018-04-28T06:09:50.824Z,71.62
2018-04-28T06:10:55.898Z,71.10
2018-04-28T06:12:00.650Z,71.66
2018-04-28T06:13:07.504Z,72.14
2018-04-28T06:14:12.009Z,72.09
2018-04-28T06:15:17.200Z,71.48
2018-04-28T06:16:21.599Z,70.45
2018-04-28T06:17:26.313Z,70.49
2018-04-28T06:18:35.767Z,70.60
2018-04-28T06:19:41.409Z,70.71
2018-04-28T06:20:45.638Z,70.22
2018-04-28T06:21:49.904Z,70.26
2018-04-28T06:22:54.037Z,69.96
2018-04-28T06:23:58.486Z,70.23
2018-04-28T06:25:02.990Z,70.44
2018-04-28T06:26:07.154Z,70.74
2018-04-28T06:27:11.286Z,71.13
2018-04-28T06:28:16.025Z,70.91
2018-04-28T06:29:20.301Z,70.87
2018-04-28T06:30:24.886Z,70.94
2018-04-28T06:31:29.342Z,71.07
2018-04-28T06:32:33.551Z,71.25
2018-04-28T06:33:38.024Z,71.34
2018-04-28T06:34:43.831Z,71.66
2018-04-28T06:35:50.298Z,72.10
2018-04-28T06:36:56.513Z,72.08
2018-04-28T06:38:01.264Z,72.16
2018-04-28T06:39:07.483Z,72.36
2018-04-28T06:40:11.673Z,72.57
2018-04-28T06:41:15.922Z,72.57
2018-04-28T06:42:20.323Z,72.27
2018-04-28T06:43:27.485Z,72.10
2018-04-28T06:44:32.038Z,72.11
2018-04-28T06:45:36.581Z,71.25
2018-04-28T06:46:40.729Z,69.35
2018-04-28T06:47:45.286Z,68.56
2018-04-28T06:48:49.548Z,68.37
2018-04-28T06:49:53.679Z,67.46
2018-04-28T06:50:58.158Z,67.38
2018-04-28T06:52:02.402Z,66.95
2018-04-28T06:53:10.838Z,67.01
2018-04-28T06:54:15.367Z,68.21
2018-04-28T06:55:19.839Z,67.46
2018-04-28T06:56:24.191Z,66.46
2018-04-28T06:57:28.462Z,65.09
2018-04-28T06:58:32.641Z,66.30
2018-04-28T06:59:37.049Z,66.13
2018-04-28T07:00:41.583Z,66.48
2018-04-28T07:01:46.359Z,65.21
2018-04-28T07:02:50.531Z,66.10
2018-04-28T07:03:54.810Z,66.65
2018-04-28T07:05:00.866Z,66.78
2018-04-28T07:06:05.171Z,66.50
2018-04-28T07:07:09.456Z,65.86
2018-04-28T07:08:13.898Z,66.28
2018-04-28T07:09:18.533Z,67.01
2018-04-28T07:10:23.821Z,67.02
2018-04-28T07:11:28.064Z,67.08
2018-04-28T07:12:32.474Z,66.59
2018-04-28T07:13:36.981Z,67.49
2018-04-28T07:14:45.279Z,67.03
2018-04-28T07:15:49.977Z,66.91
2018-04-28T07:16:54.581Z,66.92
2018-04-28T07:17:59.110Z,67.05
2018-04-28T07:19:03.579Z,65.09
2018-04-28T07:20:08.141Z,66.24
2018-04-28T07:21:12.630Z,66.21
2018-04-28T07:22:18.361Z,65.83
2018-04-28T07:23:22.873Z,66.15
2018-04-28T07:24:27.731Z,65.21
2018-04-28T07:25:32.849Z,64.87
2018-04-28T07:26:37.087Z,64.11
2018-04-28T07:27:41.529Z,64.48
2018-04-28T07:28:46.006Z,64.30
2018-04-28T07:29:50.381Z,63.76
2018-04-28T07:30:54.915Z,64.54
2018-04-28T07:31:59.409Z,64.32
2018-04-28T07:33:03.582Z,64.79
2018-04-28T07:34:08.197Z,64.39
2018-04-28T07:35:12.394Z,63.91
2018-04-28T07:36:16.554Z,63.74
2018-04-28T07:37:22.254Z,62.29
2018-04-28T07:38:26.732Z,63.47
2018-04-28T07:39:30.933Z,63.89
2018-04-28T07:40:35.083Z,62.07
2018-04-28T07:41:39.343Z,61.75
2018-04-28T07:42:43.567Z,61.89
2018-04-28T07:43:47.760Z,61.42
2018-04-28T07:44:52.022Z,62.51
2018-04-28T07:45:56.800Z,61.85
2018-04-28T07:47:01.110Z,62.34
2018-04-28T07:48:05.559Z,61.48
2018-04-28T07:49:10.144Z,61.37
2018-04-28T07:50:15.667Z,61.94
2018-04-28T07:51:20.112Z,61.79
2018-04-28T07:52:24.563Z,62.41
2018-04-28T07:53:29.306Z,62.02
2018-04-28T07:54:33.565Z,62.25
2018-04-28T07:55:37.824Z,61.78
2018-04-28T07:56:42.022Z,60.48
2018-04-28T07:57:46.158Z,61.40
2018-04-28T07:58:50.610Z,61.22
2018-04-28T08:00:58.950Z,60.48
2018-04-28T08:02:03.234Z,60.16
2018-04-28T08:03:07.372Z,59.73
2018-04-28T08:04:11.515Z,60.43
2018-04-28T08:05:16.310Z,61.11
2018-04-28T08:06:20.626Z,61.12
2018-04-28T08:07:24.853Z,62.04
2018-04-28T08:08:29.660Z,61.85
2018-04-28T08:09:33.825Z,60.45
2018-04-28T08:10:38.077Z,59.52
2018-04-28T08:11:42.342Z,59.41
2018-04-28T08:12:46.512Z,58.53
2018-04-28T08:13:50.748Z,58.78
2018-04-28T08:14:54.893Z,58.79
2018-04-28T08:15:59.393Z,58.25
2018-04-28T08:17:04.006Z,59.30
2018-04-28T08:18:08.556Z,58.03
2018-04-28T08:19:12.735Z,57.41
2018-04-28T08:20:17.682Z,56.73
2018-04-28T08:21:21.944Z,56.21
2018-04-28T08:22:26.090Z,57.17
2018-04-28T08:23:30.541Z,57.48
2018-04-28T08:24:34.697Z,58.19
2018-04-28T08:25:38.961Z,58.63
2018-04-28T08:26:43.152Z,58.08
2018-04-28T08:27:47.347Z,57.97
2018-04-28T08:28:51.531Z,58.66
2018-04-28T08:29:55.781Z,58.31
2018-04-28T08:31:00.516Z,58.75
2018-04-28T08:32:04.916Z,59.58
2018-04-28T08:33:09.128Z,60.11
2018-04-28T08:34:13.292Z,60.19
2018-04-28T08:35:17.667Z,61.06
2018-04-28T08:36:21.875Z,60.98
2018-04-28T08:37:26.733Z,60.49
2018-04-28T08:38:30.985Z,58.91
2018-04-28T08:39:35.124Z,58.23
2018-04-28T08:40:39.294Z,57.80
2018-04-28T08:41:43.491Z,57.98
2018-04-28T08:42:47.627Z,59.18
2018-04-28T08:43:51.900Z,58.15
2018-04-28T08:44:56.390Z,58.67
2018-04-28T08:46:00.614Z,59.67
2018-04-28T08:47:04.864Z,59.35
2018-04-28T08:48:09.460Z,58.92
2018-04-28T08:49:13.625Z,58.94
2018-04-28T08:50:17.821Z,59.96
2018-04-28T08:51:22.054Z,59.46
2018-04-28T08:52:28.128Z,59.65
2018-04-28T08:53:32.285Z,59.76
2018-04-28T08:54:36.417Z,59.24
2018-04-28T08:55:40.649Z,58.37
2018-04-28T08:56:44.851Z,57.32
2018-04-28T08:57:48.989Z,57.48
2018-04-28T08:58:53.428Z,57.22
2018-04-28T09:01:00.398Z,57.62
2018-04-28T09:02:04.656Z,58.16
2018-04-28T09:03:08.911Z,57.25
2018-04-28T09:04:13.123Z,55.30
2018-04-28T09:05:18.450Z,56.36
2018-04-28T09:06:22.577Z,56.93
2018-04-28T09:07:27.496Z,57.31
2018-04-28T09:08:32.619Z,55.68
2018-04-28T09:09:36.789Z,55.33
2018-04-28T09:10:41.263Z,56.18
2018-04-28T09:11:45.395Z,56.51
2018-04-28T09:12:49.630Z,56.85
2018-04-28T09:13:53.795Z,56.23
2018-04-28T09:14:58.063Z,56.23
2018-04-28T09:16:03.145Z,56.90
2018-04-28T09:17:07.804Z,57.48
2018-04-28T09:18:11.951Z,57.39
2018-04-28T09:19:16.263Z,56.46
2018-04-28T09:20:21.179Z,56.09
2018-04-28T09:21:25.302Z,56.54
2018-04-28T09:22:30.206Z,55.63
2018-04-28T09:23:34.804Z,55.90
2018-04-28T09:24:39.020Z,56.51
2018-04-28T09:25:43.186Z,57.77
2018-04-28T09:26:47.348Z,57.04
2018-04-28T09:27:51.496Z,57.13
2018-04-28T09:28:55.641Z,57.11
2018-04-28T09:30:00.570Z,56.80
2018-04-28T09:31:05.186Z,57.50
2018-04-28T09:32:09.341Z,57.20
2018-04-28T09:33:13.545Z,56.68
2018-04-28T09:34:17.691Z,57.58
2018-04-28T09:35:23.060Z,57.02
2018-04-28T09:36:27.464Z,57.68
2018-04-28T09:37:32.714Z,56.29
2018-04-28T09:38:36.817Z,56.41
2018-04-28T09:39:40.962Z,57.13
2018-04-28T09:40:45.112Z,57.51
2018-04-28T09:41:49.583Z,57.17
2018-04-28T09:42:53.785Z,56.99
2018-04-28T09:43:57.914Z,57.06
2018-04-28T09:45:04.664Z,57.91
2018-04-28T09:46:09.168Z,57.93
2018-04-28T09:47:13.621Z,56.54
2018-04-28T09:48:17.748Z,56.13
2018-04-28T09:49:21.945Z,56.14
2018-04-28T09:50:26.302Z,56.11
2018-04-28T09:51:31.490Z,56.13
2018-04-28T09:52:35.606Z,56.34
2018-04-28T09:53:40.044Z,56.63
2018-04-28T09:54:44.190Z,56.64
2018-04-28T09:55:48.406Z,56.57
2018-04-28T09:56:52.538Z,56.94
2018-04-28T09:58:05.662Z,57.17
2018-04-28T09:59:09.843Z,56.74
2018-04-28T10:00:24.082Z,56.33
2018-04-28T10:01:28.994Z,56.47
2018-04-28T10:02:34.939Z,56.55
2018-04-28T10:03:39.170Z,57.02
2018-04-28T10:04:43.341Z,56.82
2018-04-28T10:05:47.565Z,56.78
2018-04-28T10:06:51.736Z,57.13
2018-04-28T10:07:55.912Z,56.64
2018-04-28T10:09:00.243Z,56.23
2018-04-28T10:10:04.592Z,55.48
2018-04-28T10:11:08.844Z,56.02
2018-04-28T10:12:12.984Z,56.30
2018-04-28T10:13:17.421Z,55.99
2018-04-28T10:14:22.626Z,56.13
2018-04-28T10:15:26.782Z,55.44
2018-04-28T10:16:31.931Z,55.96
2018-04-28T10:17:36.226Z,55.63
2018-04-28T10:18:40.497Z,53.98
2018-04-28T10:19:45.460Z,50.74
2018-04-28T10:20:50.034Z,52.98
2018-04-28T10:21:54.166Z,51.98
2018-04-28T10:22:58.340Z,52.51
2018-04-28T10:24:02.837Z,53.34
2018-04-28T10:25:07.084Z,54.39
2018-04-28T10:26:11.232Z,55.66
2018-04-28T10:27:15.476Z,55.91
2018-04-28T10:28:19.620Z,56.90
2018-04-28T10:29:24.693Z,57.42
2018-04-28T10:30:29.810Z,56.43
2018-04-28T10:31:33.935Z,57.07
2018-04-28T10:32:38.130Z,58.01
2018-04-28T10:33:42.388Z,58.91
2018-04-28T10:34:46.534Z,59.44
2018-04-28T10:35:50.783Z,59.58
2018-04-28T10:36:55.021Z,59.89
2018-04-28T10:37:59.160Z,61.23
2018-04-28T10:39:03.524Z,61.16
2018-04-28T10:40:07.681Z,60.23
2018-04-28T10:41:11.864Z,60.70
2018-04-28T10:42:16.116Z,60.77
2018-04-28T10:43:20.614Z,60.49
2018-04-28T10:44:24.761Z,60.94
2018-04-28T10:45:29.147Z,60.63
2018-04-28T10:46:33.890Z,61.81
2018-04-28T10:47:38.040Z,62.18
2018-04-28T10:48:42.244Z,62.20
2018-04-28T10:49:46.376Z,61.58
2018-04-28T10:50:50.511Z,61.69
2018-04-28T10:51:54.656Z,61.89
2018-04-28T10:52:58.777Z,61.55
2018-04-28T10:54:03.230Z,61.01
2018-04-28T10:55:08.032Z,60.34
2018-04-28T10:56:12.247Z,60.66
2018-04-28T10:57:16.506Z,60.46
2018-04-28T10:58:20.792Z,60.06
2018-04-28T10:59:25.016Z,60.57
2018-04-28T11:00:29.360Z,61.36
2018-04-28T11:01:34.639Z,61.88
2018-04-28T11:02:38.781Z,60.82
2018-04-28T11:03:43.029Z,60.70
2018-04-28T11:04:47.175Z,60.59
2018-04-28T11:05:51.474Z,60.02
2018-04-28T11:06:55.646Z,59.98
2018-04-28T11:07:59.782Z,59.81
2018-04-28T11:09:04.576Z,58.45
2018-04-28T11:10:08.845Z,58.20
2018-04-28T11:11:13.124Z,58.15
2018-04-28T11:12:17.278Z,58.64
2018-04-28T11:13:21.767Z,58.59
2018-04-28T11:14:25.878Z,58.70
2018-04-28T11:15:30.554Z,59.21
2018-04-28T11:16:35.659Z,59.13
2018-04-28T11:17:39.862Z,59.71
2018-04-28T11:18:44.185Z,59.40
2018-04-28T11:19:49.074Z,58.08
2018-04-28T11:20:53.362Z,58.72
2018-04-28T11:21:57.520Z,59.05
2018-04-28T11:23:01.687Z,59.14
2018-04-28T11:24:06.168Z,58.39
2018-04-28T11:25:10.318Z,58.18
2018-04-28T11:26:14.880Z,58.50
2018-04-28T11:27:19.010Z,58.52
2018-04-28T11:28:23.889Z,58.24
2018-04-28T11:29:28.030Z,58.09
2018-04-28T11:30:32.432Z,57.73
2018-04-28T11:31:37.704Z,57.41
2018-04-28T11:32:42.478Z,57.62
2018-04-28T11:33:46.625Z,57.22
2018-04-28T11:34:50.768Z,56.33
2018-04-28T11:35:54.869Z,54.82
2018-04-28T11:36:59.706Z,53.53
2018-04-28T11:38:03.878Z,53.50
2018-04-28T11:39:08.474Z,53.81
2018-04-28T11:40:13.111Z,53.37
2018-04-28T11:41:17.245Z,54.16
2018-04-28T11:42:21.374Z,54.27
2018-04-28T11:43:25.510Z,54.66
2018-04-28T11:44:29.752Z,54.52
2018-04-28T11:45:34.516Z,53.81
2018-04-28T11:46:38.867Z,53.45
2018-04-28T11:47:43.270Z,53.47
2018-04-28T11:48:47.906Z,53.57
2018-04-28T11:49:52.070Z,53.99
2018-04-28T11:50:56.279Z,54.24
2018-04-28T11:52:00.536Z,54.32
2018-04-28T11:53:04.749Z,54.66
2018-04-28T11:54:08.992Z,55.24
2018-04-28T11:55:13.236Z,54.95
2018-04-28T11:56:17.396Z,55.70
2018-04-28T11:57:22.463Z,56.08
2018-04-28T11:58:26.590Z,56.37
2018-04-28T11:59:30.922Z,56.77
2018-04-28T12:00:35.578Z,56.60
2018-04-28T12:01:40.970Z,57.36
2018-04-28T12:02:45.590Z,57.11
2018-04-28T12:03:50.053Z,57.38
2018-04-28T12:04:54.245Z,56.55
2018-04-28T12:05:58.392Z,56.71
2018-04-28T12:07:02.550Z,56.67
2018-04-28T12:08:06.806Z,55.03
2018-04-28T12:09:11.235Z,54.31
2018-04-28T12:10:15.730Z,53.53
2018-04-28T12:11:19.844Z,53.05
2018-04-28T12:12:24.006Z,53.27
2018-04-28T12:13:28.251Z,52.81
2018-04-28T12:14:32.446Z,52.17
2018-04-28T12:15:36.754Z,51.23
2018-04-28T12:16:41.607Z,50.70
2018-04-28T12:17:45.800Z,50.96
2018-04-28T12:18:49.926Z,49.26
2018-04-28T12:19:54.074Z,49.84
2018-04-28T12:20:58.227Z,48.85
2018-04-28T12:22:02.415Z,47.66
2018-04-28T12:23:06.657Z,48.33
2018-04-28T12:24:11.145Z,47.93
2018-04-28T12:25:15.547Z,49.37
2018-04-28T12:26:19.690Z,50.85
2018-04-28T12:27:24.659Z,51.39
2018-04-28T12:28:28.902Z,51.73
2018-04-28T12:29:33.064Z,52.12
2018-04-28T12:30:37.563Z,51.78
2018-04-28T12:31:41.730Z,53.11
2018-04-28T12:32:45.853Z,53.94
2018-04-28T12:33:49.997Z,53.86
2018-04-28T12:34:54.160Z,53.98
2018-04-28T12:35:58.684Z,55.33
2018-04-28T12:37:02.858Z,55.90
2018-04-28T12:38:07.131Z,55.94
2018-04-28T12:39:11.525Z,56.17
2018-04-28T12:40:15.689Z,56.07
2018-04-28T12:41:19.992Z,56.36
2018-04-28T12:42:24.145Z,55.91
2018-04-28T12:43:29.123Z,55.33
2018-04-28T12:44:33.258Z,53.23
2018-04-28T12:45:37.601Z,53.07
2018-04-28T12:46:42.375Z,53.86
2018-04-28T12:47:46.895Z,54.15
2018-04-28T12:48:51.056Z,53.80
2018-04-28T12:49:55.226Z,54.14
2018-04-28T12:50:59.461Z,54.06
2018-04-28T12:52:03.691Z,53.09
2018-04-28T12:53:08.036Z,52.59
2018-04-28T12:54:12.483Z,53.20
2018-04-28T12:55:16.804Z,53.89
2018-04-28T12:56:21.322Z,53.25
2018-04-28T12:57:25.488Z,53.59
2018-04-28T12:58:29.611Z,53.72
2018-04-28T12:59:33.882Z,53.12
2018-04-28T13:00:38.054Z,54.14
2018-04-28T13:01:42.955Z,54.71
2018-04-28T13:02:47.206Z,54.33
2018-04-28T13:03:51.377Z,54.31
2018-04-28T13:04:55.933Z,54.43
2018-04-28T13:06:00.156Z,53.90
2018-04-28T13:07:04.377Z,52.99
2018-04-28T13:08:08.572Z,53.19
2018-04-28T13:09:13.146Z,52.14
2018-04-28T13:10:17.357Z,51.74
2018-04-28T13:11:21.838Z,49.66
2018-04-28T13:12:26.106Z,49.31
2018-04-28T13:13:30.273Z,49.01
2018-04-28T13:14:34.461Z,47.37
2018-04-28T13:15:38.672Z,48.25
2018-04-28T13:16:42.925Z,48.58
2018-04-28T13:17:47.547Z,49.01
2018-04-28T13:18:52.022Z,49.79
2018-04-28T13:19:56.444Z,48.55
2018-04-28T13:21:00.759Z,48.95
2018-04-28T13:22:05.085Z,47.25
2018-04-28T13:23:09.348Z,47.54
2018-04-28T13:24:14.153Z,46.78
2018-04-28T13:25:18.323Z,47.17
2018-04-28T13:26:22.516Z,47.01
2018-04-28T13:27:26.655Z,46.70
2018-04-28T13:28:30.896Z,47.12
2018-04-28T13:29:35.643Z,48.06
2018-04-28T13:30:39.822Z,48.73
2018-04-28T13:31:45.491Z,48.91
2018-04-28T13:32:49.687Z,49.28
2018-04-28T13:33:53.934Z,47.81
2018-04-28T13:34:58.088Z,48.01
2018-04-28T13:36:02.625Z,48.31
2018-04-28T13:37:06.933Z,48.06
2018-04-28T13:38:11.499Z,48.34
2018-04-28T13:39:15.997Z,48.44
2018-04-28T13:40:20.183Z,48.24
2018-04-28T13:41:24.323Z,47.37
2018-04-28T13:42:28.889Z,48.66
2018-04-28T13:43:33.936Z,48.30
2018-04-28T13:44:38.145Z,49.32
2018-04-28T13:45:42.516Z,49.20
2018-04-28T13:46:46.673Z,50.21
2018-04-28T13:47:50.796Z,50.25
2018-04-28T13:48:55.717Z,50.07
2018-04-28T13:49:59.869Z,50.67
2018-04-28T13:51:04.100Z,50.19
2018-04-28T13:52:08.289Z,50.23
2018-04-28T13:53:12.786Z,49.63
2018-04-28T13:54:17.108Z,50.33
2018-04-28T13:55:21.349Z,50.36
2018-04-28T13:56:25.493Z,50.59
2018-04-28T13:57:29.886Z,50.76
2018-04-28T13:58:35.008Z,50.45
2018-04-28T13:59:39.166Z,50.91
2018-04-28T14:00:43.862Z,50.96